sensor_id;sensor_type;location;lat;lon;timestamp;P1;durP1;ratioP1;P2;durP2;ratioP2
77012;SDS011;67260;53.130;17.982;2023-06-10T00:01:25;9.20;;;4.30;;
77012;SDS011;67260;53.130;17.982;2023-06-10T00:03:51;7.70;;;3.90;;
77012;SDS011;67260;53.130;17.982;2023-06-10T00:08:43;10.50;;;4.00;;
77012;SDS011;67260;53.130;17.982;2023-06-10T00:11:09;9.90;;;3.80;;
77012;SDS011;67260;53.130;17.982;2023-06-10T00:13:36;10.90;;;3.90;;
77012;SDS011;67260;53.130;17.982;2023-06-10T00:16:02;9.60;;;4.30;;
77012;SDS011;67260;53.130;17.982;2023-06-10T00:18:29;9.80;;;4.10;;
77012;SDS011;67260;53.130;17.982;2023-06-10T00:20:57;11.40;;;4.20;;
77012;SDS011;67260;53.130;17.982;2023-06-10T00:23:28;12.80;;;4.60;;
77012;SDS011;67260;53.130;17.982;2023-06-10T00:25:58;9.00;;;4.50;;
77012;SDS011;67260;53.130;17.982;2023-06-10T00:28:25;14.40;;;4.80;;
77012;SDS011;67260;53.130;17.982;2023-06-10T00:30:51;7.20;;;4.20;;
77012;SDS011;67260;53.130;17.982;2023-06-10T00:35:43;7.30;;;4.10;;
77012;SDS011;67260;53.130;17.982;2023-06-10T00:38:09;9.10;;;4.10;;
77012;SDS011;67260;53.130;17.982;2023-06-10T00:43:05;6.90;;;3.70;;
77012;SDS011;67260;53.130;17.982;2023-06-10T00:45:31;9.50;;;4.20;;
77012;SDS011;67260;53.130;17.982;2023-06-10T00:47:58;8.90;;;4.10;;
77012;SDS011;67260;53.130;17.982;2023-06-10T00:50:25;8.60;;;4.30;;
77012;SDS011;67260;53.130;17.982;2023-06-10T00:52:54;7.30;;;3.90;;
77012;SDS011;67260;53.130;17.982;2023-06-10T00:55:21;9.70;;;4.00;;
77012;SDS011;67260;53.130;17.982;2023-06-10T01:00:14;8.00;;;3.70;;
77012;SDS011;67260;53.130;17.982;2023-06-10T01:02:42;9.40;;;4.00;;
77012;SDS011;67260;53.130;17.982;2023-06-10T01:05:08;11.90;;;4.30;;
77012;SDS011;67260;53.130;17.982;2023-06-10T01:07:39;8.70;;;3.90;;
77012;SDS011;67260;53.130;17.982;2023-06-10T01:10:19;9.70;;;4.30;;
77012;SDS011;67260;53.130;17.982;2023-06-10T01:13:00;7.20;;;3.80;;
77012;SDS011;67260;53.130;17.982;2023-06-10T01:18:51;10.00;;;4.00;;
77012;SDS011;67260;53.130;17.982;2023-06-10T01:21:19;9.80;;;4.30;;
77012;SDS011;67260;53.130;17.982;2023-06-10T01:23:49;7.20;;;3.70;;
77012;SDS011;67260;53.130;17.982;2023-06-10T01:28:49;8.80;;;4.20;;
77012;SDS011;67260;53.130;17.982;2023-06-10T01:34:03;11.20;;;4.70;;
77012;SDS011;67260;53.130;17.982;2023-06-10T01:36:34;10.20;;;4.40;;
77012;SDS011;67260;53.130;17.982;2023-06-10T01:39:02;7.60;;;4.30;;
77012;SDS011;67260;53.130;17.982;2023-06-10T01:41:30;9.70;;;4.30;;
77012;SDS011;67260;53.130;17.982;2023-06-10T01:43:57;7.10;;;3.60;;
77012;SDS011;67260;53.130;17.982;2023-06-10T01:48:49;9.90;;;4.20;;
77012;SDS011;67260;53.130;17.982;2023-06-10T01:51:15;8.10;;;3.90;;
77012;SDS011;67260;53.130;17.982;2023-06-10T01:53:41;8.40;;;4.10;;
77012;SDS011;67260;53.130;17.982;2023-06-10T01:56:07;10.80;;;4.30;;
77012;SDS011;67260;53.130;17.982;2023-06-10T01:58:33;8.20;;;4.10;;
77012;SDS011;67260;53.130;17.982;2023-06-10T02:03:25;6.80;;;3.80;;
77012;SDS011;67260;53.130;17.982;2023-06-10T02:05:52;7.00;;;4.00;;
77012;SDS011;67260;53.130;17.982;2023-06-10T02:10:44;6.80;;;3.90;;
77012;SDS011;67260;53.130;17.982;2023-06-10T02:13:10;8.10;;;3.90;;
77012;SDS011;67260;53.130;17.982;2023-06-10T02:15:36;7.00;;;3.90;;
77012;SDS011;67260;53.130;17.982;2023-06-10T02:18:02;7.50;;;3.90;;
77012;SDS011;67260;53.130;17.982;2023-06-10T02:22:54;7.60;;;4.10;;
77012;SDS011;67260;53.130;17.982;2023-06-10T02:25:21;10.80;;;4.30;;
77012;SDS011;67260;53.130;17.982;2023-06-10T02:27:47;8.80;;;4.40;;
77012;SDS011;67260;53.130;17.982;2023-06-10T02:30:13;8.70;;;4.40;;
77012;SDS011;67260;53.130;17.982;2023-06-10T02:32:39;10.20;;;4.60;;
77012;SDS011;67260;53.130;17.982;2023-06-10T02:35:06;8.20;;;4.50;;
77012;SDS011;67260;53.130;17.982;2023-06-10T02:37:33;10.80;;;4.20;;
77012;SDS011;67260;53.130;17.982;2023-06-10T02:39:59;7.20;;;4.10;;
77012;SDS011;67260;53.130;17.982;2023-06-10T02:42:25;7.80;;;4.10;;
77012;SDS011;67260;53.130;17.982;2023-06-10T02:44:51;9.60;;;4.40;;
77012;SDS011;67260;53.130;17.982;2023-06-10T02:47:26;7.10;;;4.10;;
77012;SDS011;67260;53.130;17.982;2023-06-10T02:49:54;9.20;;;4.50;;
77012;SDS011;67260;53.130;17.982;2023-06-10T02:52:20;9.40;;;4.10;;
77012;SDS011;67260;53.130;17.982;2023-06-10T02:54:46;7.60;;;4.80;;
77012;SDS011;67260;53.130;17.982;2023-06-10T02:57:12;10.60;;;4.50;;
77012;SDS011;67260;53.130;17.982;2023-06-10T02:59:40;8.00;;;4.20;;
77012;SDS011;67260;53.130;17.982;2023-06-10T03:02:07;8.90;;;4.60;;
77012;SDS011;67260;53.130;17.982;2023-06-10T03:04:38;9.30;;;4.50;;
77012;SDS011;67260;53.130;17.982;2023-06-10T03:07:07;9.50;;;4.80;;
77012;SDS011;67260;53.130;17.982;2023-06-10T03:09:33;11.20;;;4.50;;
77012;SDS011;67260;53.130;17.982;2023-06-10T03:12:00;9.00;;;4.70;;
77012;SDS011;67260;53.130;17.982;2023-06-10T03:14:28;10.90;;;5.00;;
77012;SDS011;67260;53.130;17.982;2023-06-10T03:16:54;10.90;;;4.80;;
77012;SDS011;67260;53.130;17.982;2023-06-10T03:21:49;13.10;;;4.60;;
77012;SDS011;67260;53.130;17.982;2023-06-10T03:24:32;8.80;;;5.10;;
77012;SDS011;67260;53.130;17.982;2023-06-10T03:30:16;8.10;;;4.80;;
77012;SDS011;67260;53.130;17.982;2023-06-10T03:32:42;7.60;;;4.30;;
77012;SDS011;67260;53.130;17.982;2023-06-10T03:35:09;9.70;;;4.50;;
77012;SDS011;67260;53.130;17.982;2023-06-10T03:37:35;12.30;;;4.40;;
77012;SDS011;67260;53.130;17.982;2023-06-10T03:40:03;7.80;;;4.30;;
77012;SDS011;67260;53.130;17.982;2023-06-10T03:42:31;12.60;;;4.30;;
77012;SDS011;67260;53.130;17.982;2023-06-10T03:44:57;10.90;;;4.20;;
77012;SDS011;67260;53.130;17.982;2023-06-10T03:47:23;8.20;;;4.60;;
77012;SDS011;67260;53.130;17.982;2023-06-10T03:49:49;10.80;;;4.00;;
77012;SDS011;67260;53.130;17.982;2023-06-10T03:52:16;9.80;;;4.10;;
77012;SDS011;67260;53.130;17.982;2023-06-10T03:54:42;7.30;;;3.90;;
77012;SDS011;67260;53.130;17.982;2023-06-10T03:57:08;10.20;;;4.20;;
77012;SDS011;67260;53.130;17.982;2023-06-10T04:02:00;8.70;;;4.00;;
77012;SDS011;67260;53.130;17.982;2023-06-10T04:04:27;7.40;;;4.20;;
77012;SDS011;67260;53.130;17.982;2023-06-10T04:06:55;8.60;;;3.90;;
77012;SDS011;67260;53.130;17.982;2023-06-10T04:09:22;8.60;;;3.70;;
77012;SDS011;67260;53.130;17.982;2023-06-10T04:11:48;7.70;;;3.70;;
77012;SDS011;67260;53.130;17.982;2023-06-10T04:14:14;10.70;;;4.60;;
77012;SDS011;67260;53.130;17.982;2023-06-10T04:19:08;9.60;;;3.70;;
77012;SDS011;67260;53.130;17.982;2023-06-10T04:21:34;8.00;;;3.80;;
77012;SDS011;67260;53.130;17.982;2023-06-10T04:24:01;10.90;;;3.80;;
77012;SDS011;67260;53.130;17.982;2023-06-10T04:28:53;8.70;;;3.60;;
77012;SDS011;67260;53.130;17.982;2023-06-10T04:33:46;7.40;;;3.20;;
77012;SDS011;67260;53.130;17.982;2023-06-10T04:38:40;6.30;;;3.00;;
77012;SDS011;67260;53.130;17.982;2023-06-10T04:41:07;9.80;;;3.60;;
77012;SDS011;67260;53.130;17.982;2023-06-10T04:43:34;7.10;;;3.40;;
77012;SDS011;67260;53.130;17.982;2023-06-10T04:46:00;8.00;;;3.50;;
77012;SDS011;67260;53.130;17.982;2023-06-10T04:48:27;10.10;;;3.20;;
77012;SDS011;67260;53.130;17.982;2023-06-10T04:53:19;7.50;;;2.90;;
77012;SDS011;67260;53.130;17.982;2023-06-10T04:55:46;5.90;;;3.10;;
77012;SDS011;67260;53.130;17.982;2023-06-10T04:58:14;8.80;;;3.30;;
77012;SDS011;67260;53.130;17.982;2023-06-10T05:00:41;7.50;;;2.60;;
77012;SDS011;67260;53.130;17.982;2023-06-10T05:03:07;6.60;;;3.00;;
77012;SDS011;67260;53.130;17.982;2023-06-10T05:05:33;8.00;;;3.20;;
77012;SDS011;67260;53.130;17.982;2023-06-10T05:07:59;5.80;;;3.10;;
77012;SDS011;67260;53.130;17.982;2023-06-10T05:10:25;6.50;;;3.00;;
77012;SDS011;67260;53.130;17.982;2023-06-10T05:12:51;6.30;;;3.00;;
77012;SDS011;67260;53.130;17.982;2023-06-10T05:15:17;6.90;;;2.90;;
77012;SDS011;67260;53.130;17.982;2023-06-10T05:17:43;7.50;;;3.30;;
77012;SDS011;67260;53.130;17.982;2023-06-10T05:20:10;5.90;;;3.20;;
77012;SDS011;67260;53.130;17.982;2023-06-10T05:22:36;6.00;;;2.70;;
77012;SDS011;67260;53.130;17.982;2023-06-10T05:25:03;5.90;;;3.00;;
77012;SDS011;67260;53.130;17.982;2023-06-10T05:27:29;6.70;;;2.80;;
77012;SDS011;67260;53.130;17.982;2023-06-10T05:32:22;6.00;;;2.90;;
77012;SDS011;67260;53.130;17.982;2023-06-10T05:34:48;7.90;;;3.00;;
77012;SDS011;67260;53.130;17.982;2023-06-10T05:37:15;8.90;;;3.20;;
77012;SDS011;67260;53.130;17.982;2023-06-10T05:39:41;6.70;;;3.30;;
77012;SDS011;67260;53.130;17.982;2023-06-10T05:44:34;8.90;;;3.90;;
77012;SDS011;67260;53.130;17.982;2023-06-10T05:47:00;5.40;;;3.10;;
77012;SDS011;67260;53.130;17.982;2023-06-10T05:49:26;6.20;;;3.10;;
77012;SDS011;67260;53.130;17.982;2023-06-10T05:51:53;5.40;;;2.90;;
77012;SDS011;67260;53.130;17.982;2023-06-10T05:56:45;8.90;;;3.50;;
77012;SDS011;67260;53.130;17.982;2023-06-10T05:59:10;6.90;;;3.10;;
77012;SDS011;67260;53.130;17.982;2023-06-10T06:01:36;8.90;;;3.00;;
77012;SDS011;67260;53.130;17.982;2023-06-10T06:04:03;9.60;;;3.60;;
77012;SDS011;67260;53.130;17.982;2023-06-10T06:08:55;7.60;;;3.20;;
77012;SDS011;67260;53.130;17.982;2023-06-10T06:11:21;10.70;;;3.20;;
77012;SDS011;67260;53.130;17.982;2023-06-10T06:13:47;10.30;;;3.30;;
77012;SDS011;67260;53.130;17.982;2023-06-10T06:16:14;8.10;;;3.40;;
77012;SDS011;67260;53.130;17.982;2023-06-10T06:18:40;10.80;;;3.40;;
77012;SDS011;67260;53.130;17.982;2023-06-10T06:21:06;7.50;;;3.30;;
77012;SDS011;67260;53.130;17.982;2023-06-10T06:23:32;9.40;;;3.20;;
77012;SDS011;67260;53.130;17.982;2023-06-10T06:26:07;7.70;;;3.30;;
77012;SDS011;67260;53.130;17.982;2023-06-10T06:28:35;7.20;;;3.20;;
77012;SDS011;67260;53.130;17.982;2023-06-10T06:31:01;6.20;;;3.20;;
77012;SDS011;67260;53.130;17.982;2023-06-10T06:35:54;9.00;;;3.30;;
77012;SDS011;67260;53.130;17.982;2023-06-10T06:38:20;8.80;;;3.50;;
77012;SDS011;67260;53.130;17.982;2023-06-10T06:40:46;9.50;;;3.50;;
77012;SDS011;67260;53.130;17.982;2023-06-10T06:45:49;7.00;;;3.30;;
77012;SDS011;67260;53.130;17.982;2023-06-10T06:48:15;11.90;;;3.30;;
77012;SDS011;67260;53.130;17.982;2023-06-10T06:50:41;7.60;;;3.30;;
77012;SDS011;67260;53.130;17.982;2023-06-10T06:53:07;10.30;;;3.10;;
77012;SDS011;67260;53.130;17.982;2023-06-10T06:55:33;9.00;;;3.40;;
77012;SDS011;67260;53.130;17.982;2023-06-10T06:57:59;4.80;;;3.40;;
77012;SDS011;67260;53.130;17.982;2023-06-10T07:00:28;7.80;;;3.00;;
77012;SDS011;67260;53.130;17.982;2023-06-10T07:02:54;9.90;;;3.10;;
77012;SDS011;67260;53.130;17.982;2023-06-10T07:05:21;6.90;;;2.90;;
77012;SDS011;67260;53.130;17.982;2023-06-10T07:07:47;7.00;;;3.00;;
77012;SDS011;67260;53.130;17.982;2023-06-10T07:10:13;6.60;;;2.90;;
77012;SDS011;67260;53.130;17.982;2023-06-10T07:12:40;6.90;;;2.60;;
77012;SDS011;67260;53.130;17.982;2023-06-10T07:15:06;10.40;;;2.80;;
77012;SDS011;67260;53.130;17.982;2023-06-10T07:17:33;9.70;;;2.90;;
77012;SDS011;67260;53.130;17.982;2023-06-10T07:20:00;6.70;;;2.80;;
77012;SDS011;67260;53.130;17.982;2023-06-10T07:22:26;9.50;;;2.70;;
77012;SDS011;67260;53.130;17.982;2023-06-10T07:24:52;8.60;;;2.70;;
77012;SDS011;67260;53.130;17.982;2023-06-10T07:27:20;7.40;;;3.00;;
77012;SDS011;67260;53.130;17.982;2023-06-10T07:29:46;6.90;;;2.80;;
77012;SDS011;67260;53.130;17.982;2023-06-10T07:32:12;8.10;;;2.60;;
77012;SDS011;67260;53.130;17.982;2023-06-10T07:34:38;9.70;;;3.00;;
77012;SDS011;67260;53.130;17.982;2023-06-10T07:37:04;7.80;;;3.00;;
77012;SDS011;67260;53.130;17.982;2023-06-10T07:39:31;8.60;;;2.80;;
77012;SDS011;67260;53.130;17.982;2023-06-10T07:41:57;5.30;;;2.50;;
77012;SDS011;67260;53.130;17.982;2023-06-10T07:44:23;8.00;;;3.10;;
77012;SDS011;67260;53.130;17.982;2023-06-10T07:46:49;5.70;;;2.70;;
77012;SDS011;67260;53.130;17.982;2023-06-10T07:49:16;4.80;;;2.60;;
77012;SDS011;67260;53.130;17.982;2023-06-10T07:51:42;6.90;;;2.80;;
77012;SDS011;67260;53.130;17.982;2023-06-10T07:54:08;9.00;;;2.80;;
77012;SDS011;67260;53.130;17.982;2023-06-10T07:56:34;5.90;;;2.90;;
77012;SDS011;67260;53.130;17.982;2023-06-10T07:59:00;5.30;;;2.90;;
77012;SDS011;67260;53.130;17.982;2023-06-10T08:01:26;10.50;;;3.10;;
77012;SDS011;67260;53.130;17.982;2023-06-10T08:03:52;8.10;;;2.90;;
77012;SDS011;67260;53.130;17.982;2023-06-10T08:06:18;7.20;;;2.70;;
77012;SDS011;67260;53.130;17.982;2023-06-10T08:08:44;8.30;;;2.60;;
77012;SDS011;67260;53.130;17.982;2023-06-10T08:11:12;5.90;;;2.80;;
77012;SDS011;67260;53.130;17.982;2023-06-10T08:13:39;8.60;;;3.00;;
77012;SDS011;67260;53.130;17.982;2023-06-10T08:16:05;7.40;;;2.70;;
77012;SDS011;67260;53.130;17.982;2023-06-10T08:18:31;8.90;;;2.70;;
77012;SDS011;67260;53.130;17.982;2023-06-10T08:20:57;5.70;;;2.70;;
77012;SDS011;67260;53.130;17.982;2023-06-10T08:23:24;7.40;;;2.60;;
77012;SDS011;67260;53.130;17.982;2023-06-10T08:25:50;8.50;;;2.80;;
77012;SDS011;67260;53.130;17.982;2023-06-10T08:28:17;7.80;;;2.70;;
77012;SDS011;67260;53.130;17.982;2023-06-10T08:30:43;8.20;;;2.70;;
77012;SDS011;67260;53.130;17.982;2023-06-10T08:33:10;4.90;;;2.60;;
77012;SDS011;67260;53.130;17.982;2023-06-10T08:35:36;6.10;;;3.00;;
77012;SDS011;67260;53.130;17.982;2023-06-10T08:38:02;7.70;;;2.90;;
77012;SDS011;67260;53.130;17.982;2023-06-10T08:40:28;5.70;;;2.70;;
77012;SDS011;67260;53.130;17.982;2023-06-10T08:43:00;8.90;;;2.90;;
77012;SDS011;67260;53.130;17.982;2023-06-10T08:45:36;10.40;;;2.60;;
77012;SDS011;67260;53.130;17.982;2023-06-10T08:48:03;6.60;;;2.80;;
77012;SDS011;67260;53.130;17.982;2023-06-10T08:50:35;7.40;;;2.60;;
77012;SDS011;67260;53.130;17.982;2023-06-10T08:53:04;6.20;;;2.50;;
77012;SDS011;67260;53.130;17.982;2023-06-10T08:55:38;7.80;;;2.70;;
77012;SDS011;67260;53.130;17.982;2023-06-10T08:58:07;6.50;;;2.60;;
77012;SDS011;67260;53.130;17.982;2023-06-10T09:00:33;8.00;;;2.50;;
77012;SDS011;67260;53.130;17.982;2023-06-10T09:03:00;7.40;;;2.40;;
77012;SDS011;67260;53.130;17.982;2023-06-10T09:05:28;6.30;;;2.80;;
77012;SDS011;67260;53.130;17.982;2023-06-10T09:07:56;7.80;;;2.70;;
77012;SDS011;67260;53.130;17.982;2023-06-10T09:10:23;5.60;;;2.60;;
77012;SDS011;67260;53.130;17.982;2023-06-10T09:12:49;10.10;;;2.80;;
77012;SDS011;67260;53.130;17.982;2023-06-10T09:15:16;6.40;;;2.80;;
77012;SDS011;67260;53.130;17.982;2023-06-10T09:17:43;9.20;;;2.80;;
77012;SDS011;67260;53.130;17.982;2023-06-10T09:20:10;6.20;;;2.60;;
77012;SDS011;67260;53.130;17.982;2023-06-10T09:22:37;7.70;;;2.90;;
77012;SDS011;67260;53.130;17.982;2023-06-10T09:25:05;5.30;;;2.60;;
77012;SDS011;67260;53.130;17.982;2023-06-10T09:27:46;7.60;;;2.70;;
77012;SDS011;67260;53.130;17.982;2023-06-10T09:30:34;8.60;;;2.80;;
77012;SDS011;67260;53.130;17.982;2023-06-10T09:33:01;5.40;;;2.30;;
77012;SDS011;67260;53.130;17.982;2023-06-10T09:35:29;7.40;;;2.50;;
77012;SDS011;67260;53.130;17.982;2023-06-10T09:37:57;6.50;;;2.80;;
77012;SDS011;67260;53.130;17.982;2023-06-10T09:40:24;6.40;;;2.80;;
77012;SDS011;67260;53.130;17.982;2023-06-10T09:42:54;8.00;;;2.50;;
77012;SDS011;67260;53.130;17.982;2023-06-10T09:47:51;6.00;;;2.40;;
77012;SDS011;67260;53.130;17.982;2023-06-10T09:50:21;8.30;;;2.50;;
77012;SDS011;67260;53.130;17.982;2023-06-10T09:52:47;7.50;;;2.30;;
77012;SDS011;67260;53.130;17.982;2023-06-10T09:55:14;9.60;;;2.60;;
77012;SDS011;67260;53.130;17.982;2023-06-10T09:57:41;7.50;;;2.70;;
77012;SDS011;67260;53.130;17.982;2023-06-10T10:00:10;8.90;;;2.50;;
77012;SDS011;67260;53.130;17.982;2023-06-10T10:02:50;7.20;;;2.30;;
77012;SDS011;67260;53.130;17.982;2023-06-10T10:05:19;5.40;;;2.30;;
77012;SDS011;67260;53.130;17.982;2023-06-10T10:07:46;5.80;;;2.50;;
77012;SDS011;67260;53.130;17.982;2023-06-10T10:10:14;6.00;;;2.20;;
77012;SDS011;67260;53.130;17.982;2023-06-10T10:12:41;5.00;;;2.20;;
77012;SDS011;67260;53.130;17.982;2023-06-10T10:15:08;9.80;;;2.50;;
77012;SDS011;67260;53.130;17.982;2023-06-10T10:17:59;5.50;;;2.30;;
77012;SDS011;67260;53.130;17.982;2023-06-10T10:20:37;7.00;;;2.90;;
77012;SDS011;67260;53.130;17.982;2023-06-10T10:23:11;7.00;;;2.50;;
77012;SDS011;67260;53.130;17.982;2023-06-10T10:25:42;5.70;;;2.40;;
77012;SDS011;67260;53.130;17.982;2023-06-10T10:28:09;6.70;;;2.30;;
77012;SDS011;67260;53.130;17.982;2023-06-10T10:30:45;5.30;;;2.90;;
77012;SDS011;67260;53.130;17.982;2023-06-10T10:36:05;4.90;;;2.30;;
77012;SDS011;67260;53.130;17.982;2023-06-10T10:38:33;9.10;;;2.70;;
77012;SDS011;67260;53.130;17.982;2023-06-10T10:41:01;7.10;;;2.50;;
77012;SDS011;67260;53.130;17.982;2023-06-10T10:43:28;7.30;;;2.50;;
77012;SDS011;67260;53.130;17.982;2023-06-10T10:45:59;5.70;;;2.40;;
77012;SDS011;67260;53.130;17.982;2023-06-10T10:48:35;6.70;;;2.90;;
77012;SDS011;67260;53.130;17.982;2023-06-10T10:51:03;8.30;;;2.70;;
77012;SDS011;67260;53.130;17.982;2023-06-10T10:53:30;7.20;;;2.50;;
77012;SDS011;67260;53.130;17.982;2023-06-10T10:55:59;5.30;;;2.40;;
77012;SDS011;67260;53.130;17.982;2023-06-10T10:58:33;4.90;;;2.30;;
77012;SDS011;67260;53.130;17.982;2023-06-10T11:01:00;6.00;;;2.70;;
77012;SDS011;67260;53.130;17.982;2023-06-10T11:03:36;10.40;;;2.30;;
77012;SDS011;67260;53.130;17.982;2023-06-10T11:06:13;7.30;;;2.50;;
77012;SDS011;67260;53.130;17.982;2023-06-10T11:11:26;4.40;;;2.60;;
77012;SDS011;67260;53.130;17.982;2023-06-10T11:16:30;5.30;;;2.50;;
77012;SDS011;67260;53.130;17.982;2023-06-10T11:19:05;6.20;;;2.40;;
77012;SDS011;67260;53.130;17.982;2023-06-10T11:21:31;5.50;;;2.30;;
77012;SDS011;67260;53.130;17.982;2023-06-10T11:23:57;7.60;;;2.40;;
77012;SDS011;67260;53.130;17.982;2023-06-10T11:31:24;6.50;;;2.10;;
77012;SDS011;67260;53.130;17.982;2023-06-10T11:34:04;5.90;;;2.40;;
77012;SDS011;67260;53.130;17.982;2023-06-10T11:36:32;6.70;;;2.30;;
77012;SDS011;67260;53.130;17.982;2023-06-10T11:39:03;6.40;;;2.50;;
77012;SDS011;67260;53.130;17.982;2023-06-10T11:41:31;5.10;;;2.30;;
77012;SDS011;67260;53.130;17.982;2023-06-10T11:44:03;7.20;;;2.20;;
77012;SDS011;67260;53.130;17.982;2023-06-10T11:46:30;5.00;;;2.30;;
77012;SDS011;67260;53.130;17.982;2023-06-10T11:48:59;7.10;;;2.30;;
77012;SDS011;67260;53.130;17.982;2023-06-10T11:51:27;4.70;;;2.20;;
77012;SDS011;67260;53.130;17.982;2023-06-10T11:53:56;6.60;;;2.00;;
77012;SDS011;67260;53.130;17.982;2023-06-10T11:56:22;6.80;;;2.30;;
77012;SDS011;67260;53.130;17.982;2023-06-10T11:58:57;6.20;;;2.30;;
77012;SDS011;67260;53.130;17.982;2023-06-10T12:01:25;6.20;;;2.20;;
77012;SDS011;67260;53.130;17.982;2023-06-10T12:04:05;4.60;;;2.20;;
77012;SDS011;67260;53.130;17.982;2023-06-10T12:09:06;6.00;;;2.20;;
77012;SDS011;67260;53.130;17.982;2023-06-10T12:11:38;6.00;;;2.60;;
77012;SDS011;67260;53.130;17.982;2023-06-10T12:14:05;9.00;;;2.50;;
77012;SDS011;67260;53.130;17.982;2023-06-10T12:16:31;7.20;;;2.30;;
77012;SDS011;67260;53.130;17.982;2023-06-10T12:19:02;4.00;;;2.50;;
77012;SDS011;67260;53.130;17.982;2023-06-10T12:21:31;6.10;;;2.10;;
77012;SDS011;67260;53.130;17.982;2023-06-10T12:24:02;5.50;;;2.20;;
77012;SDS011;67260;53.130;17.982;2023-06-10T12:26:38;4.90;;;2.30;;
77012;SDS011;67260;53.130;17.982;2023-06-10T12:29:26;5.20;;;2.60;;
77012;SDS011;67260;53.130;17.982;2023-06-10T12:31:53;4.80;;;2.20;;
77012;SDS011;67260;53.130;17.982;2023-06-10T12:34:20;5.40;;;2.30;;
77012;SDS011;67260;53.130;17.982;2023-06-10T12:36:49;6.30;;;2.30;;
77012;SDS011;67260;53.130;17.982;2023-06-10T12:39:15;6.50;;;2.40;;
77012;SDS011;67260;53.130;17.982;2023-06-10T12:41:47;6.90;;;2.50;;
77012;SDS011;67260;53.130;17.982;2023-06-10T12:44:14;4.90;;;2.10;;
77012;SDS011;67260;53.130;17.982;2023-06-10T12:46:40;5.00;;;2.40;;
77012;SDS011;67260;53.130;17.982;2023-06-10T12:49:08;7.20;;;2.50;;
77012;SDS011;67260;53.130;17.982;2023-06-10T12:51:35;7.10;;;2.60;;
77012;SDS011;67260;53.130;17.982;2023-06-10T12:54:02;7.20;;;2.30;;
77012;SDS011;67260;53.130;17.982;2023-06-10T12:56:28;4.60;;;2.00;;
77012;SDS011;67260;53.130;17.982;2023-06-10T12:58:54;5.00;;;2.10;;
77012;SDS011;67260;53.130;17.982;2023-06-10T13:01:20;6.30;;;2.20;;
77012;SDS011;67260;53.130;17.982;2023-06-10T13:03:46;6.30;;;2.30;;
77012;SDS011;67260;53.130;17.982;2023-06-10T13:06:13;5.90;;;2.10;;
77012;SDS011;67260;53.130;17.982;2023-06-10T13:08:39;4.20;;;2.20;;
77012;SDS011;67260;53.130;17.982;2023-06-10T13:11:05;5.70;;;2.20;;
77012;SDS011;67260;53.130;17.982;2023-06-10T13:13:31;7.10;;;2.30;;
77012;SDS011;67260;53.130;17.982;2023-06-10T13:15:57;6.20;;;2.30;;
77012;SDS011;67260;53.130;17.982;2023-06-10T13:18:23;7.40;;;2.30;;
77012;SDS011;67260;53.130;17.982;2023-06-10T13:20:50;6.60;;;2.30;;
77012;SDS011;67260;53.130;17.982;2023-06-10T13:23:16;5.70;;;2.60;;
77012;SDS011;67260;53.130;17.982;2023-06-10T13:25:42;6.10;;;2.40;;
77012;SDS011;67260;53.130;17.982;2023-06-10T13:28:10;7.80;;;2.40;;
77012;SDS011;67260;53.130;17.982;2023-06-10T13:30:37;5.00;;;2.50;;
77012;SDS011;67260;53.130;17.982;2023-06-10T13:33:03;4.30;;;2.20;;
77012;SDS011;67260;53.130;17.982;2023-06-10T13:35:29;5.80;;;2.50;;
77012;SDS011;67260;53.130;17.982;2023-06-10T13:37:55;5.90;;;2.20;;
77012;SDS011;67260;53.130;17.982;2023-06-10T13:40:21;5.50;;;2.30;;
77012;SDS011;67260;53.130;17.982;2023-06-10T13:42:48;3.80;;;2.10;;
77012;SDS011;67260;53.130;17.982;2023-06-10T13:45:16;7.80;;;2.40;;
77012;SDS011;67260;53.130;17.982;2023-06-10T13:47:43;8.10;;;2.20;;
77012;SDS011;67260;53.130;17.982;2023-06-10T13:50:09;7.80;;;2.40;;
77012;SDS011;67260;53.130;17.982;2023-06-10T13:52:35;4.90;;;2.20;;
77012;SDS011;67260;53.130;17.982;2023-06-10T13:55:02;4.60;;;2.10;;
77012;SDS011;67260;53.130;17.982;2023-06-10T13:57:30;6.50;;;2.30;;
77012;SDS011;67260;53.130;17.982;2023-06-10T13:59:56;5.40;;;2.00;;
77012;SDS011;67260;53.130;17.982;2023-06-10T14:04:48;10.10;;;2.50;;
77012;SDS011;67260;53.130;17.982;2023-06-10T14:07:14;4.00;;;2.10;;
77012;SDS011;67260;53.130;17.982;2023-06-10T14:09:41;4.90;;;2.20;;
77012;SDS011;67260;53.130;17.982;2023-06-10T14:12:07;8.20;;;2.30;;
77012;SDS011;67260;53.130;17.982;2023-06-10T14:14:33;3.60;;;2.00;;
77012;SDS011;67260;53.130;17.982;2023-06-10T14:17:00;8.60;;;2.40;;
77012;SDS011;67260;53.130;17.982;2023-06-10T14:19:26;7.70;;;2.10;;
77012;SDS011;67260;53.130;17.982;2023-06-10T14:21:52;6.10;;;2.40;;
77012;SDS011;67260;53.130;17.982;2023-06-10T14:24:22;8.60;;;2.30;;
77012;SDS011;67260;53.130;17.982;2023-06-10T14:26:48;8.50;;;2.30;;
77012;SDS011;67260;53.130;17.982;2023-06-10T14:29:14;5.10;;;2.00;;
77012;SDS011;67260;53.130;17.982;2023-06-10T14:31:40;6.20;;;2.50;;
77012;SDS011;67260;53.130;17.982;2023-06-10T14:34:06;4.00;;;2.30;;
77012;SDS011;67260;53.130;17.982;2023-06-10T14:36:35;6.30;;;1.90;;
77012;SDS011;67260;53.130;17.982;2023-06-10T14:39:02;2.80;;;1.60;;
77012;SDS011;67260;53.130;17.982;2023-06-10T14:41:29;11.00;;;2.10;;
77012;SDS011;67260;53.130;17.982;2023-06-10T14:46:24;6.60;;;1.80;;
77012;SDS011;67260;53.130;17.982;2023-06-10T14:48:50;7.40;;;2.00;;
77012;SDS011;67260;53.130;17.982;2023-06-10T14:51:17;3.70;;;1.90;;
77012;SDS011;67260;53.130;17.982;2023-06-10T14:56:09;8.50;;;1.70;;
77012;SDS011;67260;53.130;17.982;2023-06-10T14:58:35;7.20;;;1.70;;
77012;SDS011;67260;53.130;17.982;2023-06-10T15:01:01;6.70;;;1.80;;
77012;SDS011;67260;53.130;17.982;2023-06-10T15:03:29;4.60;;;1.80;;
77012;SDS011;67260;53.130;17.982;2023-06-10T15:05:55;4.20;;;1.60;;
77012;SDS011;67260;53.130;17.982;2023-06-10T15:08:21;3.40;;;1.80;;
77012;SDS011;67260;53.130;17.982;2023-06-10T15:13:14;3.40;;;1.70;;
77012;SDS011;67260;53.130;17.982;2023-06-10T15:18:06;6.10;;;1.70;;
77012;SDS011;67260;53.130;17.982;2023-06-10T15:20:32;6.00;;;2.00;;
77012;SDS011;67260;53.130;17.982;2023-06-10T15:25:24;4.00;;;1.60;;
77012;SDS011;67260;53.130;17.982;2023-06-10T15:27:50;6.00;;;1.90;;
77012;SDS011;67260;53.130;17.982;2023-06-10T15:30:18;5.40;;;1.70;;
77012;SDS011;67260;53.130;17.982;2023-06-10T15:32:44;4.60;;;1.90;;
77012;SDS011;67260;53.130;17.982;2023-06-10T15:35:10;7.10;;;1.90;;
77012;SDS011;67260;53.130;17.982;2023-06-10T15:37:37;3.40;;;1.80;;
77012;SDS011;67260;53.130;17.982;2023-06-10T15:40:06;7.20;;;2.00;;
77012;SDS011;67260;53.130;17.982;2023-06-10T15:42:32;5.60;;;2.00;;
77012;SDS011;67260;53.130;17.982;2023-06-10T15:47:25;6.60;;;2.00;;
77012;SDS011;67260;53.130;17.982;2023-06-10T15:49:51;4.60;;;1.90;;
77012;SDS011;67260;53.130;17.982;2023-06-10T15:54:43;5.50;;;2.30;;
77012;SDS011;67260;53.130;17.982;2023-06-10T15:57:09;4.50;;;1.80;;
77012;SDS011;67260;53.130;17.982;2023-06-10T15:59:38;4.60;;;1.90;;
77012;SDS011;67260;53.130;17.982;2023-06-10T16:02:05;4.50;;;2.00;;
77012;SDS011;67260;53.130;17.982;2023-06-10T16:04:31;6.00;;;1.90;;
77012;SDS011;67260;53.130;17.982;2023-06-10T16:06:59;4.10;;;1.80;;
77012;SDS011;67260;53.130;17.982;2023-06-10T16:09:25;7.80;;;1.70;;
77012;SDS011;67260;53.130;17.982;2023-06-10T16:11:51;4.30;;;1.90;;
77012;SDS011;67260;53.130;17.982;2023-06-10T16:14:18;5.30;;;1.90;;
77012;SDS011;67260;53.130;17.982;2023-06-10T16:16:45;5.60;;;2.20;;